Viana, Spain

4:58 PM CET on December 28, 2014 (GMT +0100)
EA2CCG Gartxena | Change Station
CLOSE
Current Station
Personal Weather Station
Location: Oteiza, NAVARRA
Elevation: 1693 ft
Nearby Weather Stations
Active Advisory: Snow/Ice

Elev 1693 ft 42.62 °N, 1.95 °W | Updated 3 minutes ago

Scattered Clouds
Scattered Clouds
39.4 °F
Feels Like 33 °F
N
9.0
Wind Variable Wind from SSW
Gusts 13.0 mph

Today
High -- | Low -- °F
--% Chance of Precip.
Yesterday
High -- | Low -- °F
Precip. -- in
8:38 AM 5:43 PM
Waxing Crescent, 49% visible
Pressure 30.21 in
Visibility 6.2 miles
Clouds Few 1500 ft
Scattered Clouds 4000 ft
Windchill 33 °F
Dew Point 32 °F
Humidity 75%
Rainfall 0.17 in
Snow Depth Not available.
UV 0 out of 12
Pollen Not available.
Air Quality Not available.
Flu Activity Not available.
METAR LEVT 281530Z 34008KT 300V020 9999 FEW015 SCT040 04/00 Q1023

More Conditions Fewer Conditions

Pressure 30.21 in
Visibility 6.2 miles
Clouds Few 1500 ft
Scattered Clouds 4000 ft
Windchill 33 °F
Dew Point 32 °F
Humidity 75%
Rainfall 0.17 in
Snow Depth Not available.
UV 0 out of 12
Pollen Not available.
Air Quality Not available.
Flu Activity Not available.
METAR LEVT 281530Z 34008KT 300V020 9999 FEW015 SCT040 04/00 Q1023

More Conditions Fewer Conditions

10-Day Weather Forecast

Almanac

Astronomy

Dec. 28, 2014 Rise Set
Actual Time
Civil Twilight
Nautical Twilight
Astronomical Twilight
Moon
Length of Visible Light
Length of Day
Tomorrow will be .
, % of the Moon is Illuminated

Today's Extremes

Country Highs Country Lows

Community

WunderPhotos

Upload Photos

1,781,309 photos uploaded!

WunderBlogs® & News

Nearby

Air Quality

  Air Quality AQ Index Pollutant
Not available.

Snow Depth

Station Depth Elevation

Earthquake Activity

City Distance Mag. Time & Date
Minimum magnitude displayed is 2.5.

Coastal Water Temperatures

Place Temperature

Nearby Weather Stations